Time;durP1;ratioP1;P1;durP2;ratioP2;P2;SDS_P1;SDS_P2;PMS_P1;PMS_P2;Temp;Humidity;BMP_temperature;BMP_pressure;BME280_temperature;BME280_humidity;BME280_pressure;Samples;Min_cycle;Max_cycle;Signal;HPM_P1;HPM_P2
2023/11/24 00:02:13;;;;;;;1.00;0.90;;;11.50;76.10;;;;;;5050629;28;20480;-52
2023/11/24 00:04:39;;;;;;;1.60;1.00;;;11.40;76.90;;;;;;5040286;28;20917;-56
2023/11/24 00:07:04;;;;;;;0.90;0.80;;;11.40;77.10;;;;;;5047283;28;20538;-49
2023/11/24 00:09:30;;;;;;;1.00;1.00;;;11.20;78.00;;;;;;5046262;28;20201;-53
2023/11/24 00:11:58;;;;;;;1.90;1.20;;;11.10;78.10;;;;;;5040444;28;20189;-52
2023/11/24 00:14:24;;;;;;;1.40;1.30;;;11.20;78.50;;;;;;5034352;28;20208;-51
2023/11/24 00:16:49;;;;;;;1.83;1.30;;;11.30;78.00;;;;;;5035854;28;20938;-54
2023/11/24 00:19:15;;;;;;;1.17;1.10;;;11.20;77.70;;;;;;5038100;28;20227;-52
2023/11/24 00:21:46;;;;;;;0.83;0.80;;;11.30;77.60;;;;;;5038071;28;20637;-50
2023/11/24 00:24:12;;;;;;;0.73;0.70;;;11.20;77.40;;;;;;5038296;28;20189;-56
2023/11/24 00:26:38;;;;;;;2.40;1.00;;;11.20;77.90;;;;;;5044518;28;20427;-52
2023/11/24 00:29:03;;;;;;;0.77;0.77;;;11.20;77.40;;;;;;5039679;28;20210;-51
2023/11/24 00:31:31;;;;;;;0.80;0.80;;;11.10;77.60;;;;;;5043215;28;20206;-49
2023/11/24 00:33:57;;;;;;;2.00;1.00;;;11.10;77.90;;;;;;5041794;28;20532;-50
2023/11/24 00:36:23;;;;;;;1.93;0.77;;;11.30;77.10;;;;;;5036445;28;20454;-49
2023/11/24 00:38:51;;;;;;;1.80;0.80;;;11.40;76.70;;;;;;5035734;28;20462;-50
2023/11/24 00:41:17;;;;;;;0.80;0.80;;;11.40;76.00;;;;;;5042042;28;20217;-48
2023/11/24 00:43:44;;;;;;;0.77;0.77;;;11.20;76.30;;;;;;5040176;28;20581;-48
2023/11/24 00:46:10;;;;;;;0.80;0.80;;;11.30;76.90;;;;;;5039984;28;20428;-48
2023/11/24 00:48:40;;;;;;;0.70;0.70;;;11.40;76.70;;;;;;5037537;28;20455;-54
2023/11/24 00:51:07;;;;;;;1.10;0.90;;;11.50;75.50;;;;;;5037476;28;20947;-49
2023/11/24 00:53:33;;;;;;;1.07;0.90;;;11.60;75.30;;;;;;5041586;28;20435;-52
2023/11/24 00:56:00;;;;;;;1.13;1.03;;;11.60;75.30;;;;;;5041852;28;20465;-49
2023/11/24 00:58:25;;;;;;;1.43;0.80;;;11.50;75.00;;;;;;5040834;28;20431;-49
2023/11/24 01:00:53;;;;;;;0.90;0.90;;;11.30;75.50;;;;;;5039892;28;20900;-54
2023/11/24 01:03:22;;;;;;;1.70;1.13;;;11.30;75.10;;;;;;5037416;28;20681;-49
2023/11/24 01:05:49;;;;;;;1.00;1.00;;;11.30;75.30;;;;;;5044761;28;20455;-54
2023/11/24 01:08:15;;;;;;;1.43;1.33;;;11.50;75.10;;;;;;5035758;28;20476;-53
2023/11/24 01:10:41;;;;;;;1.30;0.87;;;11.60;73.70;;;;;;5044639;28;20433;-55
2023/11/24 01:13:06;;;;;;;2.93;0.80;;;11.70;73.20;;;;;;5039607;28;20443;-52
2023/11/24 01:15:32;;;;;;;0.67;0.67;;;11.70;72.80;;;;;;5036669;28;20443;-50
2023/11/24 01:17:59;;;;;;;0.83;0.83;;;11.80;72.40;;;;;;5039770;28;20197;-49
2023/11/24 01:20:25;;;;;;;0.80;0.80;;;11.80;72.00;;;;;;5038926;28;20275;-54
2023/11/24 01:22:50;;;;;;;1.40;0.80;;;11.90;72.50;;;;;;5034828;28;20444;-54
2023/11/24 01:25:16;;;;;;;0.90;0.90;;;11.90;71.70;;;;;;5035069;28;20486;-51
2023/11/24 01:27:42;;;;;;;0.80;0.80;;;11.80;72.20;;;;;;5035804;28;20212;-50
2023/11/24 01:30:09;;;;;;;0.70;0.70;;;12.00;72.00;;;;;;5035570;28;20228;-49
2023/11/24 01:32:35;;;;;;;1.87;0.80;;;12.00;71.10;;;;;;5041844;28;20852;-48
2023/11/24 01:35:00;;;;;;;1.47;0.97;;;12.00;71.10;;;;;;5034908;28;20472;-49
2023/11/24 01:37:27;;;;;;;0.80;0.80;;;12.00;71.20;;;;;;5033398;28;20449;-50
2023/11/24 01:39:53;;;;;;;0.80;0.80;;;12.20;70.40;;;;;;5034721;28;20247;-49
2023/11/24 01:42:19;;;;;;;1.60;0.97;;;12.40;69.70;;;;;;5034673;28;20440;-49
2023/11/24 01:44:45;;;;;;;1.00;0.80;;;12.50;69.50;;;;;;5040292;28;20521;-49
2023/11/24 01:47:11;;;;;;;1.37;1.10;;;12.30;69.50;;;;;;5041012;28;20189;-53
2023/11/24 01:49:37;;;;;;;1.03;0.90;;;12.30;69.70;;;;;;5044958;28;20455;-50
2023/11/24 01:52:04;;;;;;;1.47;0.77;;;12.30;69.90;;;;;;5042960;28;20411;-53
2023/11/24 01:54:36;;;;;;;0.70;0.70;;;12.30;69.80;;;;;;5042745;28;20791;-50
2023/11/24 01:57:04;;;;;;;1.00;0.90;;;12.10;70.10;;;;;;5038077;28;20460;-52
2023/11/24 01:59:31;;;;;;;1.23;0.90;;;12.00;72.30;;;;;;5039129;28;20456;-50
2023/11/24 02:01:57;;;;;;;0.80;0.80;;;11.90;72.90;;;;;;5032085;28;20490;-55
2023/11/24 02:04:22;;;;;;;0.90;0.90;;;11.80;74.70;;;;;;5037392;28;20452;-49
2023/11/24 02:06:48;;;;;;;0.83;0.83;;;11.80;75.00;;;;;;5035148;28;20205;-48
2023/11/24 02:09:14;;;;;;;1.90;1.10;;;11.60;75.70;;;;;;5037046;28;20707;-49
2023/11/24 02:11:39;;;;;;;1.10;1.10;;;11.70;76.80;;;;;;5039062;28;20199;-57
2023/11/24 02:14:05;;;;;;;1.40;1.13;;;11.80;76.30;;;;;;5035500;28;20265;-54
2023/11/24 02:16:30;;;;;;;1.20;1.10;;;11.70;76.90;;;;;;5037730;28;20220;-50
2023/11/24 02:18:56;;;;;;;1.10;1.00;;;11.90;76.70;;;;;;5032637;28;20201;-50
2023/11/24 02:21:22;;;;;;;1.20;1.10;;;11.70;77.50;;;;;;5039284;28;20216;-54
2023/11/24 02:23:49;;;;;;;1.03;0.80;;;11.70;78.50;;;;;;5032927;28;20201;-53
2023/11/24 02:26:15;;;;;;;0.87;0.70;;;11.90;78.20;;;;;;5037507;28;20228;-49
2023/11/24 02:28:40;;;;;;;0.80;0.80;;;11.90;78.40;;;;;;5033309;28;20479;-52
2023/11/24 02:31:07;;;;;;;1.00;0.90;;;11.90;78.50;;;;;;5033766;28;20185;-49
2023/11/24 02:33:33;;;;;;;1.03;0.93;;;11.80;79.70;;;;;;5036935;28;20196;-50
2023/11/24 02:36:05;;;;;;;2.40;1.23;;;11.70;79.80;;;;;;5036195;28;20820;-49
2023/11/24 02:38:34;;;;;;;1.23;1.13;;;11.60;80.40;;;;;;5032599;28;21030;-54
2023/11/24 02:41:00;;;;;;;2.40;1.30;;;11.70;81.40;;;;;;5032318;28;21107;-52
2023/11/24 02:43:29;;;;;;;1.03;0.87;;;11.70;81.00;;;;;;5035192;28;20431;-53
2023/11/24 02:45:54;;;;;;;0.90;0.90;;;11.80;81.20;;;;;;5032090;28;20455;-53
2023/11/24 02:48:20;;;;;;;1.73;1.20;;;11.90;80.70;;;;;;5030250;28;20478;-51
2023/11/24 02:50:47;;;;;;;1.10;1.00;;;12.10;79.80;;;;;;5029711;28;20185;-50
2023/11/24 02:53:12;;;;;;;1.10;1.00;;;12.20;78.90;;;;;;5031163;28;20486;-50
2023/11/24 02:55:38;;;;;;;0.93;0.93;;;12.20;78.30;;;;;;5037577;28;20482;-54
2023/11/24 02:58:04;;;;;;;1.07;1.00;;;12.20;78.90;;;;;;5038303;28;20177;-52
2023/11/24 03:00:29;;;;;;;2.27;1.00;;;12.10;79.40;;;;;;5043532;28;20220;-51
2023/11/24 03:02:55;;;;;;;0.80;0.80;;;12.10;79.60;;;;;;5034157;28;20799;-51
2023/11/24 03:05:21;;;;;;;1.33;0.90;;;11.90;80.20;;;;;;5035897;28;20645;-49
2023/11/24 03:07:47;;;;;;;1.50;1.20;;;11.60;82.00;;;;;;5037051;28;20431;-48
2023/11/24 03:10:12;;;;;;;1.53;1.17;;;11.50;83.80;;;;;;5034064;28;20278;-51
2023/11/24 03:12:38;;;;;;;1.37;0.80;;;11.70;83.30;;;;;;5043140;28;20272;-53
2023/11/24 03:15:04;;;;;;;1.03;1.00;;;11.80;81.80;;;;;;5033173;28;20190;-49
2023/11/24 03:17:30;;;;;;;0.80;0.70;;;12.00;81.70;;;;;;5030889;28;20185;-48
2023/11/24 03:19:56;;;;;;;2.00;0.87;;;11.90;81.50;;;;;;5035778;28;20455;-49
2023/11/24 03:22:21;;;;;;;0.83;0.83;;;12.10;80.80;;;;;;5031731;28;20627;-49
2023/11/24 03:24:47;;;;;;;0.70;0.70;;;12.10;80.60;;;;;;5033114;28;20193;-53
2023/11/24 03:27:13;;;;;;;0.70;0.67;;;12.00;80.80;;;;;;5034187;28;20197;-50
2023/11/24 03:29:39;;;;;;;0.73;0.73;;;12.10;79.80;;;;;;5034011;28;20886;-52
2023/11/24 03:32:06;;;;;;;2.50;0.83;;;12.10;80.40;;;;;;5028527;28;20196;-55
2023/11/24 03:34:32;;;;;;;0.80;0.80;;;11.90;80.90;;;;;;5034950;28;20500;-52
2023/11/24 03:36:57;;;;;;;0.90;0.50;;;12.00;80.40;;;;;;5037581;28;20427;-50
2023/11/24 03:39:23;;;;;;;0.60;0.60;;;11.70;80.60;;;;;;5041964;28;20204;-52
2023/11/24 03:41:49;;;;;;;0.97;0.87;;;11.60;81.20;;;;;;5039559;28;20746;-51
2023/11/24 03:44:14;;;;;;;0.73;0.70;;;11.60;81.60;;;;;;5038456;28;20732;-51
2023/11/24 03:46:40;;;;;;;1.17;0.60;;;11.70;81.40;;;;;;5037832;28;20193;-59
2023/11/24 03:49:06;;;;;;;1.37;0.70;;;11.80;81.30;;;;;;5039038;28;20201;-50
2023/11/24 03:51:32;;;;;;;0.60;0.60;;;12.00;80.10;;;;;;5038526;28;20254;-50
2023/11/24 03:53:58;;;;;;;0.97;0.83;;;12.10;79.60;;;;;;5041927;28;20415;-50
2023/11/24 03:56:24;;;;;;;0.80;0.80;;;12.20;78.50;;;;;;5042733;28;20551;-51
2023/11/24 03:58:49;;;;;;;0.70;0.70;;;12.20;77.70;;;;;;5038145;28;20462;-49
2023/11/24 04:01:15;;;;;;;0.73;0.57;;;12.40;77.50;;;;;;5036393;28;20350;-50
2023/11/24 04:03:47;;;;;;;0.50;0.50;;;12.40;76.70;;;;;;5038078;28;20623;-52
2023/11/24 04:06:14;;;;;;;3.80;0.73;;;12.50;76.20;;;;;;5037336;28;20184;-50
2023/11/24 04:08:40;;;;;;;0.60;0.60;;;12.50;76.00;;;;;;5035513;28;20495;-57
2023/11/24 04:11:06;;;;;;;0.60;0.60;;;12.30;76.10;;;;;;5041187;28;20499;-52
2023/11/24 04:13:32;;;;;;;1.00;0.93;;;12.50;76.60;;;;;;5038936;28;20185;-53
2023/11/24 04:15:58;;;;;;;0.60;0.60;;;12.30;76.30;;;;;;5038361;28;20243;-53
2023/11/24 04:18:24;;;;;;;2.00;0.80;;;12.30;76.60;;;;;;5037916;28;20268;-52
2023/11/24 04:20:51;;;;;;;0.73;0.73;;;12.30;76.80;;;;;;5035526;28;20514;-53
2023/11/24 04:23:17;;;;;;;0.80;0.63;;;12.10;76.90;;;;;;5039268;28;20459;-51
2023/11/24 04:25:44;;;;;;;0.70;0.60;;;12.30;77.00;;;;;;5041014;28;20455;-51
2023/11/24 04:28:16;;;;;;;0.53;0.53;;;12.40;76.60;;;;;;5034103;28;21044;-49
2023/11/24 04:30:42;;;;;;;1.47;0.70;;;12.30;76.80;;;;;;5042530;28;20948;-51
2023/11/24 04:33:07;;;;;;;1.80;0.80;;;12.10;77.40;;;;;;5037207;28;20452;-51
2023/11/24 04:35:33;;;;;;;0.70;0.70;;;12.20;76.90;;;;;;5039085;28;20487;-52
2023/11/24 04:37:59;;;;;;;1.23;0.60;;;12.30;76.60;;;;;;5036215;28;20192;-50
2023/11/24 04:40:25;;;;;;;0.70;0.70;;;12.20;76.50;;;;;;5038402;28;20871;-53
2023/11/24 04:42:52;;;;;;;0.77;0.77;;;12.10;76.60;;;;;;5038141;28;20443;-51
2023/11/24 04:45:17;;;;;;;1.50;0.60;;;12.00;76.80;;;;;;5038880;28;20189;-51
2023/11/24 04:47:43;;;;;;;0.70;0.70;;;12.20;76.80;;;;;;5044053;28;20442;-52
2023/11/24 04:50:09;;;;;;;4.70;0.70;;;12.20;77.00;;;;;;5033886;28;20635;-51
2023/11/24 04:52:35;;;;;;;0.97;0.87;;;12.30;76.90;;;;;;5041184;28;20231;-53
2023/11/24 04:55:01;;;;;;;2.50;1.20;;;12.00;78.70;;;;;;5038603;28;20487;-53
2023/11/24 04:57:26;;;;;;;2.40;1.10;;;11.60;78.40;;;;;;5035911;28;20443;-49
2023/11/24 04:59:52;;;;;;;3.03;1.10;;;11.60;78.70;;;;;;5038447;28;20212;-54
2023/11/24 05:02:18;;;;;;;2.33;1.43;;;11.70;78.10;;;;;;5040874;28;20189;-51
2023/11/24 05:04:43;;;;;;;1.83;1.40;;;11.70;76.50;;;;;;5044418;28;20267;-52
2023/11/24 05:07:09;;;;;;;2.80;1.30;;;11.80;74.60;;;;;;5037166;28;20182;-48
2023/11/24 05:09:36;;;;;;;3.83;1.50;;;12.00;73.30;;;;;;5042108;28;20211;-52
2023/11/24 05:12:02;;;;;;;2.60;1.33;;;12.00;73.10;;;;;;5040029;28;20498;-54
2023/11/24 05:14:28;;;;;;;4.80;1.30;;;12.20;72.60;;;;;;5033809;28;20850;-50
2023/11/24 05:16:53;;;;;;;6.77;1.67;;;12.40;72.00;;;;;;5036299;28;20425;-52
2023/11/24 05:19:19;;;;;;;4.10;1.80;;;12.40;71.90;;;;;;5034413;28;20212;-49
2023/11/24 05:21:45;;;;;;;2.53;1.90;;;12.50;71.50;;;;;;5035106;28;20229;-51
2023/11/24 05:24:10;;;;;;;1.83;1.30;;;12.60;71.20;;;;;;5034822;28;20815;-55
2023/11/24 05:26:36;;;;;;;3.20;1.60;;;12.60;72.20;;;;;;5036846;28;20181;-51
2023/11/24 05:29:01;;;;;;;2.97;1.30;;;12.20;71.90;;;;;;5034392;28;20220;-52
2023/11/24 05:31:27;;;;;;;2.60;1.10;;;12.00;73.50;;;;;;5038535;28;20198;-49
2023/11/24 05:33:52;;;;;;;3.30;1.50;;;11.80;72.70;;;;;;5039266;28;20541;-50
2023/11/24 05:36:18;;;;;;;4.40;1.97;;;11.70;73.00;;;;;;5043066;28;20766;-49
2023/11/24 05:38:45;;;;;;;6.63;1.80;;;11.60;72.50;;;;;;5035573;28;20208;-50
2023/11/24 05:41:10;;;;;;;4.90;2.23;;;11.70;72.50;;;;;;5036873;28;20971;-54
2023/11/24 05:43:36;;;;;;;5.10;2.73;;;11.70;71.80;;;;;;5036005;28;20534;-50
2023/11/24 05:46:02;;;;;;;4.23;1.87;;;11.70;72.20;;;;;;5037720;28;20188;-52
2023/11/24 05:48:28;;;;;;;5.17;1.97;;;11.80;71.30;;;;;;5041330;28;20682;-53
2023/11/24 05:50:55;;;;;;;4.73;1.73;;;11.80;70.50;;;;;;5035229;28;20671;-55
2023/11/24 05:53:21;;;;;;;4.90;1.50;;;11.90;70.70;;;;;;5036311;28;20432;-48
2023/11/24 05:55:46;;;;;;;4.20;1.40;;;12.00;70.60;;;;;;5041359;28;20454;-53
2023/11/24 05:58:12;;;;;;;8.60;2.20;;;12.00;69.90;;;;;;5032043;28;20185;-50
2023/11/24 06:00:37;;;;;;;2.97;1.60;;;12.00;69.10;;;;;;5044836;28;20208;-50
2023/11/24 06:03:03;;;;;;;4.40;1.57;;;12.00;69.00;;;;;;5035179;28;20193;-49
2023/11/24 06:05:30;;;;;;;7.60;2.70;;;11.80;68.90;;;;;;5038463;28;20247;-53
2023/11/24 06:07:57;;;;;;;6.63;1.53;;;11.50;69.80;;;;;;5036032;28;20193;-52
2023/11/24 06:10:24;;;;;;;5.63;1.97;;;11.60;70.60;;;;;;5041580;28;20534;-50
2023/11/24 06:12:49;;;;;;;6.27;2.17;;;11.60;70.90;;;;;;5035704;28;20431;-51
2023/11/24 06:15:15;;;;;;;3.93;1.70;;;11.50;70.90;;;;;;5037748;28;20451;-51
2023/11/24 06:17:40;;;;;;;7.63;2.43;;;11.40;71.50;;;;;;5034383;28;20216;-56
2023/11/24 06:20:07;;;;;;;5.07;2.83;;;11.60;71.30;;;;;;5039047;28;20289;-55
2023/11/24 06:22:33;;;;;;;4.33;2.20;;;11.80;70.50;;;;;;5036177;28;20802;-51
2023/11/24 06:24:58;;;;;;;4.33;1.90;;;11.70;70.10;;;;;;5038873;28;20517;-52
2023/11/24 06:27:24;;;;;;;4.30;1.80;;;11.80;69.80;;;;;;5040310;28;20664;-52
2023/11/24 06:29:50;;;;;;;8.67;1.73;;;11.80;69.70;;;;;;5034180;28;20216;-49
2023/11/24 06:32:16;;;;;;;5.93;2.03;;;11.80;69.10;;;;;;5035480;28;20689;-51
2023/11/24 06:34:41;;;;;;;4.30;1.80;;;12.00;68.60;;;;;;5038345;28;20601;-53
2023/11/24 06:37:07;;;;;;;6.73;1.57;;;12.10;68.20;;;;;;5033396;28;20185;-49
2023/11/24 06:39:33;;;;;;;5.03;1.60;;;12.20;67.50;;;;;;5036542;28;20224;-53
2023/11/24 06:41:59;;;;;;;10.67;2.53;;;12.40;67.30;;;;;;5036604;28;20221;-55
2023/11/24 06:44:26;;;;;;;4.13;1.87;;;12.40;66.70;;;;;;5048501;28;20180;-52
2023/11/24 06:46:51;;;;;;;3.60;2.00;;;12.50;66.50;;;;;;5040859;28;21652;-50
2023/11/24 06:49:17;;;;;;;2.27;1.33;;;12.60;66.40;;;;;;5040001;28;20451;-52
2023/11/24 06:51:46;;;;;;;5.23;1.70;;;12.60;66.10;;;;;;5038318;28;20189;-53
2023/11/24 06:54:12;;;;;;;3.80;1.50;;;12.70;65.90;;;;;;5036443;28;20189;-52
2023/11/24 06:56:37;;;;;;;11.33;1.80;;;12.70;65.50;;;;;;5030818;28;20951;-54
2023/11/24 06:59:03;;;;;;;7.10;2.03;;;12.70;65.70;;;;;;5037509;28;20576;-53
2023/11/24 07:01:35;;;;;;;7.20;2.27;;;12.70;65.50;;;;;;5038131;28;20227;-53
2023/11/24 07:04:02;;;;;;;2.80;1.37;;;12.80;65.30;;;;;;5036663;28;20919;-54
2023/11/24 07:06:28;;;;;;;6.57;1.97;;;12.80;65.10;;;;;;5034559;28;20534;-55
2023/11/24 07:08:53;;;;;;;10.73;1.77;;;12.80;65.00;;;;;;5036828;28;20542;-52
2023/11/24 07:11:20;;;;;;;3.20;1.80;;;12.80;65.10;;;;;;5041832;28;20326;-56
2023/11/24 07:13:45;;;;;;;4.03;1.67;;;12.90;65.00;;;;;;5038514;28;20243;-49
2023/11/24 07:16:11;;;;;;;5.40;1.90;;;13.00;64.70;;;;;;5043537;28;20439;-52
2023/11/24 07:18:36;;;;;;;5.13;1.60;;;13.10;64.50;;;;;;5039144;28;20215;-50
2023/11/24 07:21:03;;;;;;;4.67;2.13;;;13.20;64.30;;;;;;5038268;28;20208;-49
2023/11/24 07:23:28;;;;;;;5.53;1.80;;;13.20;64.20;;;;;;5039552;28;20270;-52
2023/11/24 07:25:54;;;;;;;5.67;1.63;;;13.30;64.20;;;;;;5044380;28;20475;-51
2023/11/24 07:28:20;;;;;;;9.40;2.17;;;13.40;64.10;;;;;;5044676;28;20199;-52
2023/11/24 07:30:46;;;;;;;6.03;2.07;;;13.50;64.00;;;;;;5044082;28;20195;-55
2023/11/24 07:33:12;;;;;;;4.30;2.10;;;13.50;64.60;;;;;;5043603;28;20451;-52
2023/11/24 07:35:38;;;;;;;7.00;2.00;;;13.50;63.40;;;;;;5039322;28;20523;-50
2023/11/24 07:38:04;;;;;;;3.27;2.07;;;13.50;63.40;;;;;;5036300;28;20949;-50
2023/11/24 07:40:30;;;;;;;5.50;2.30;;;13.50;63.40;;;;;;5040990;28;20339;-52
2023/11/24 07:42:56;;;;;;;5.93;2.07;;;13.40;63.30;;;;;;5039544;28;20671;-50
2023/11/24 07:45:21;;;;;;;3.67;1.80;;;13.30;63.30;;;;;;5040873;28;20416;-51
2023/11/24 07:47:47;;;;;;;4.00;2.07;;;13.10;63.10;;;;;;5036666;28;20718;-51
2023/11/24 07:50:13;;;;;;;4.37;1.63;;;12.70;63.90;;;;;;5043984;28;20257;-52
2023/11/24 07:52:38;;;;;;;6.37;1.63;;;12.50;64.40;;;;;;5042498;28;20215;-52
2023/11/24 07:55:05;;;;;;;6.80;1.70;;;12.30;64.30;;;;;;5036093;28;20193;-52
2023/11/24 07:57:35;;;;;;;7.23;2.20;;;12.10;65.10;;;;;;5035343;28;20197;-49
2023/11/24 08:00:00;;;;;;;5.60;1.70;;;12.00;65.60;;;;;;5039278;28;20577;-50
2023/11/24 08:02:27;;;;;;;8.07;1.90;;;12.00;65.30;;;;;;5040847;28;20529;-50
2023/11/24 08:04:52;;;;;;;3.70;2.53;;;11.80;65.40;;;;;;5043707;28;20559;-48
2023/11/24 08:07:18;;;;;;;3.00;2.20;;;11.80;66.20;;;;;;5040817;28;20426;-49
2023/11/24 08:09:44;;;;;;;3.50;1.50;;;11.60;66.40;;;;;;5037566;28;20283;-54
2023/11/24 08:12:10;;;;;;;7.63;2.00;;;11.50;68.00;;;;;;5038525;28;20190;-56
2023/11/24 08:14:35;;;;;;;5.30;3.07;;;11.50;68.70;;;;;;5042474;28;20518;-50
2023/11/24 08:17:01;;;;;;;4.80;2.53;;;11.50;69.70;;;;;;5038496;28;20192;-50
2023/11/24 08:19:27;;;;;;;7.33;2.93;;;11.60;70.00;;;;;;5036988;28;20209;-49
2023/11/24 08:21:52;;;;;;;4.47;2.13;;;11.50;70.00;;;;;;5042465;28;20586;-50
2023/11/24 08:24:18;;;;;;;5.93;2.20;;;11.70;69.80;;;;;;5043229;28;20202;-53
2023/11/24 08:26:44;;;;;;;4.70;1.67;;;11.80;69.60;;;;;;5036666;28;20558;-49
2023/11/24 08:29:10;;;;;;;5.53;1.93;;;12.00;69.20;;;;;;5039257;28;20771;-54
2023/11/24 08:31:35;;;;;;;5.83;1.80;;;12.00;69.20;;;;;;5043853;28;20561;-50
2023/11/24 08:34:01;;;;;;;5.80;1.80;;;12.10;69.20;;;;;;5038715;28;20232;-49
2023/11/24 08:36:27;;;;;;;7.70;1.93;;;12.10;69.00;;;;;;5034936;28;20664;-49
2023/11/24 08:38:52;;;;;;;6.80;2.50;;;12.20;68.80;;;;;;5034111;28;20201;-53
2023/11/24 08:41:18;;;;;;;7.10;2.27;;;12.30;68.80;;;;;;5038347;28;20683;-55
2023/11/24 08:43:47;;;;;;;6.03;2.20;;;12.40;68.80;;;;;;5033869;28;20209;-52
2023/11/24 08:46:12;;;;;;;3.83;2.30;;;12.40;68.80;;;;;;5033295;28;20320;-57
2023/11/24 08:48:39;;;;;;;5.60;2.13;;;12.50;68.60;;;;;;5034558;28;20562;-56
2023/11/24 08:51:07;;;;;;;4.50;2.10;;;12.50;68.50;;;;;;5039569;28;20219;-56
2023/11/24 08:53:34;;;;;;;8.60;3.37;;;12.50;68.60;;;;;;5038129;28;20826;-52
2023/11/24 08:56:00;;;;;;;11.37;3.77;;;12.60;68.70;;;;;;5034549;28;20455;-50
2023/11/24 08:58:27;;;;;;;9.80;4.80;;;12.70;69.30;;;;;;5040376;28;20427;-53
2023/11/24 09:00:53;;;;;;;7.03;3.03;;;12.80;68.30;;;;;;5038017;28;20543;-54
2023/11/24 09:03:19;;;;;;;7.13;2.67;;;12.80;68.20;;;;;;5037504;28;20432;-51
2023/11/24 09:05:45;;;;;;;5.10;1.90;;;12.90;68.20;;;;;;5038408;28;20194;-54
2023/11/24 09:08:11;;;;;;;5.03;2.70;;;12.90;68.00;;;;;;5030158;28;20455;-55
2023/11/24 09:10:37;;;;;;;4.10;2.10;;;12.80;68.10;;;;;;5034734;28;20481;-52
2023/11/24 09:13:02;;;;;;;5.70;1.97;;;12.60;68.50;;;;;;5030534;28;20443;-52
2023/11/24 09:15:28;;;;;;;5.10;2.30;;;12.60;69.30;;;;;;5041165;28;20185;-49
2023/11/24 09:17:54;;;;;;;5.60;2.33;;;12.50;69.40;;;;;;5040907;28;20188;-53
2023/11/24 09:20:19;;;;;;;4.63;1.90;;;12.50;69.70;;;;;;5035892;28;20340;-54
2023/11/24 09:22:45;;;;;;;7.40;2.80;;;12.40;70.00;;;;;;5037652;28;20222;-57
2023/11/24 09:25:12;;;;;;;8.13;2.80;;;12.40;70.40;;;;;;5037837;28;20599;-52
2023/11/24 09:27:38;;;;;;;4.93;1.83;;;12.20;71.00;;;;;;5035864;28;20456;-55
2023/11/24 09:30:08;;;;;;;6.83;2.20;;;12.30;71.10;;;;;;5034957;28;20554;-49
2023/11/24 09:32:39;;;;;;;5.43;2.20;;;12.20;71.00;;;;;;5035054;28;20415;-51
2023/11/24 09:35:06;;;;;;;11.40;3.03;;;12.00;71.30;;;;;;5035495;28;20447;-52
2023/11/24 09:37:33;;;;;;;5.10;2.30;;;12.00;71.30;;;;;;5038003;28;20534;-51
2023/11/24 09:39:58;;;;;;;13.23;2.70;;;11.90;72.00;;;;;;5037050;28;20470;-49
2023/11/24 09:42:30;;;;;;;9.80;2.40;;;11.50;71.90;;;;;;5033779;28;20448;-51
2023/11/24 09:45:00;;;;;;;6.80;2.10;;;11.60;73.30;;;;;;5033241;28;20185;-57
2023/11/24 09:47:26;;;;;;;7.20;3.37;;;11.60;72.30;;;;;;5040483;28;20444;-49
2023/11/24 09:49:53;;;;;;;9.30;2.27;;;11.50;71.70;;;;;;5038394;28;20449;-51
2023/11/24 09:52:22;;;;;;;11.53;2.67;;;11.40;72.40;;;;;;5034756;28;20228;-53
2023/11/24 09:54:48;;;;;;;6.10;2.40;;;11.40;72.80;;;;;;5037818;28;20949;-49
2023/11/24 09:57:13;;;;;;;3.97;2.00;;;11.50;71.90;;;;;;5034949;28;20427;-53
2023/11/24 09:59:39;;;;;;;5.10;2.40;;;11.40;72.00;;;;;;5039784;28;20211;-55
2023/11/24 10:02:12;;;;;;;7.90;2.57;;;11.50;73.20;;;;;;5035125;28;20304;-53
2023/11/24 10:04:37;;;;;;;7.53;2.37;;;11.40;71.80;;;;;;5037018;28;20242;-53
2023/11/24 10:07:12;;;;;;;6.10;1.77;;;11.30;71.70;;;;;;5036633;28;20919;-53
2023/11/24 10:09:38;;;;;;;7.07;2.50;;;11.20;71.90;;;;;;5036250;28;20212;-50
2023/11/24 10:12:05;;;;;;;9.60;2.27;;;11.50;72.90;;;;;;5036556;28;20430;-51
2023/11/24 10:14:31;;;;;;;9.07;2.23;;;11.50;70.70;;;;;;5039642;28;20200;-49
2023/11/24 10:16:56;;;;;;;8.10;2.10;;;11.30;70.50;;;;;;5036706;28;20420;-49
2023/11/24 10:19:27;;;;;;;9.00;3.13;;;11.40;70.10;;;;;;5033197;28;20205;-49
2023/11/24 10:21:53;;;;;;;12.50;2.13;;;11.50;69.40;;;;;;5037670;28;20295;-52
2023/11/24 10:24:21;;;;;;;7.17;2.70;;;11.50;68.60;;;;;;5037778;28;20421;-50
2023/11/24 10:26:46;;;;;;;6.07;2.07;;;11.40;67.40;;;;;;5038578;28;20938;-52
2023/11/24 10:29:14;;;;;;;10.20;2.03;;;11.40;66.90;;;;;;5036439;28;20444;-52
2023/11/24 10:31:39;;;;;;;7.30;1.67;;;11.50;67.10;;;;;;5037740;28;20220;-55
2023/11/24 10:34:06;;;;;;;5.43;3.13;;;11.40;67.00;;;;;;5030405;28;20494;-53
2023/11/24 10:36:33;;;;;;;6.07;2.20;;;11.30;67.70;;;;;;5036773;28;20634;-51
2023/11/24 10:39:08;;;;;;;8.57;2.23;;;11.40;67.40;;;;;;5033449;28;20826;-50
2023/11/24 10:41:41;;;;;;;8.97;2.13;;;11.30;67.70;;;;;;5038234;28;20482;-54
2023/11/24 10:44:10;;;;;;;5.73;2.20;;;10.90;66.20;;;;;;5034935;28;20500;-49
2023/11/24 10:46:41;;;;;;;4.70;1.50;;;10.70;67.30;;;;;;5039468;28;20904;-53
2023/11/24 10:49:12;;;;;;;7.80;2.43;;;10.70;68.50;;;;;;5035901;28;20475;-53
2023/11/24 10:51:59;;;;;;;4.50;1.67;;;10.70;69.40;;;;;;5035259;28;20419;-53
2023/11/24 10:54:34;;;;;;;9.47;2.10;;;10.80;70.00;;;;;;5038292;28;20451;-50
2023/11/24 10:57:00;;;;;;;11.50;2.53;;;10.90;70.60;;;;;;5033935;28;21250;-53
2023/11/24 10:59:28;;;;;;;6.43;2.43;;;11.20;69.80;;;;;;5037702;28;20450;-48
2023/11/24 11:01:57;;;;;;;9.60;2.83;;;11.10;68.70;;;;;;5032417;28;20214;-50
2023/11/24 11:04:23;;;;;;;10.33;2.47;;;11.30;70.00;;;;;;5036394;28;20447;-48
2023/11/24 11:07:35;;;;;;;9.10;3.47;;;11.30;69.00;;;;;;5037995;28;20999;-48
2023/11/24 11:10:12;;;;;;;3.00;2.00;;;11.20;69.30;;;;;;5038492;28;20435;-48
2023/11/24 11:12:43;;;;;;;6.60;2.60;;;11.20;68.60;;;;;;5035726;28;21178;-49
2023/11/24 11:15:10;;;;;;;4.40;2.70;;;11.00;67.80;;;;;;5037280;28;20485;-48
2023/11/24 11:17:37;;;;;;;6.03;2.20;;;11.20;68.80;;;;;;5036140;28;20459;-50
2023/11/24 11:20:14;;;;;;;9.13;2.63;;;11.40;67.50;;;;;;5033538;28;20829;-51
2023/11/24 11:22:43;;;;;;;7.43;2.53;;;11.40;66.80;;;;;;5037304;28;20427;-55
2023/11/24 11:25:27;;;;;;;10.20;2.63;;;11.20;66.20;;;;;;5036703;28;20562;-50
2023/11/24 11:27:55;;;;;;;15.40;2.13;;;11.40;66.90;;;;;;5034122;28;20740;-53
2023/11/24 11:30:26;;;;;;;7.70;2.27;;;11.50;66.50;;;;;;5035168;28;20528;-52
2023/11/24 11:33:02;;;;;;;5.87;1.97;;;11.50;67.00;;;;;;5035480;28;20432;-56
2023/11/24 11:35:34;;;;;;;5.80;2.40;;;11.60;66.10;;;;;;5038446;28;20523;-49
2023/11/24 11:38:00;;;;;;;5.23;3.00;;;11.60;65.60;;;;;;5035826;28;20424;-53
2023/11/24 11:40:32;;;;;;;5.43;2.60;;;11.80;65.50;;;;;;5037672;28;20475;-48
2023/11/24 11:43:05;;;;;;;5.70;2.30;;;11.80;64.50;;;;;;5033987;28;20942;-49
2023/11/24 11:45:32;;;;;;;3.17;2.00;;;11.60;64.10;;;;;;5038727;28;20523;-53
2023/11/24 11:48:02;;;;;;;7.73;2.43;;;11.50;64.50;;;;;;5031575;28;20844;-48
2023/11/24 11:50:29;;;;;;;4.93;2.03;;;11.30;64.20;;;;;;5034964;28;20521;-50
2023/11/24 11:53:00;;;;;;;5.13;2.10;;;11.40;64.90;;;;;;5038844;28;20959;-52
2023/11/24 11:55:28;;;;;;;8.83;1.93;;;11.40;63.80;;;;;;5038530;28;20857;-48
2023/11/24 11:57:55;;;;;;;8.13;1.93;;;11.30;65.00;;;;;;5037269;28;20444;-48
2023/11/24 12:00:31;;;;;;;8.33;2.00;;;11.10;65.50;;;;;;5038133;28;20483;-54
2023/11/24 12:02:57;;;;;;;4.80;2.43;;;11.00;66.00;;;;;;5039049;28;20463;-50
2023/11/24 12:05:23;;;;;;;8.87;2.10;;;10.70;65.40;;;;;;5042321;28;20420;-53
2023/11/24 12:07:51;;;;;;;3.17;1.43;;;10.60;66.60;;;;;;5037563;28;20447;-52
2023/11/24 12:10:17;;;;;;;8.13;2.10;;;10.80;67.40;;;;;;5035913;28;20454;-52
2023/11/24 12:12:46;;;;;;;7.87;2.13;;;10.90;67.00;;;;;;5037344;28;20959;-52
2023/11/24 12:15:17;;;;;;;9.07;2.20;;;10.70;66.50;;;;;;5039754;28;20193;-58
2023/11/24 12:17:44;;;;;;;7.00;2.43;;;11.00;68.10;;;;;;5038738;28;20451;-58
2023/11/24 12:20:14;;;;;;;8.80;1.90;;;10.80;66.80;;;;;;5039782;28;21006;-49
2023/11/24 12:22:42;;;;;;;8.67;2.20;;;10.80;68.10;;;;;;5042067;28;20461;-51
2023/11/24 12:25:10;;;;;;;5.63;1.50;;;10.60;67.40;;;;;;5038535;28;20494;-49
2023/11/24 12:27:36;;;;;;;4.00;1.90;;;10.60;67.70;;;;;;5040819;28;20423;-51
2023/11/24 12:30:04;;;;;;;7.53;2.50;;;10.60;67.80;;;;;;5039179;28;20470;-49
2023/11/24 12:32:32;;;;;;;5.97;2.13;;;10.60;68.60;;;;;;5039134;28;20444;-49
2023/11/24 12:35:00;;;;;;;4.03;1.93;;;10.70;67.60;;;;;;5041968;28;20427;-51
2023/11/24 12:37:27;;;;;;;7.40;2.17;;;10.70;66.40;;;;;;5038958;28;20462;-49
2023/11/24 12:39:53;;;;;;;10.33;2.00;;;10.70;65.40;;;;;;5044125;28;20989;-51
2023/11/24 12:42:19;;;;;;;3.60;1.60;;;10.80;64.80;;;;;;5039841;28;20475;-53
2023/11/24 12:44:51;;;;;;;3.20;1.80;;;10.50;64.90;;;;;;5040260;28;20585;-48